sensor_id;sensor_type;location;lat;lon;timestamp;P1;durP1;ratioP1;P2;durP2;ratioP2
86099;SDS011;76724;47.496;19.064;2024-02-21T00:00:27;2.90;;;2.90;;
86099;SDS011;76724;47.496;19.064;2024-02-21T00:01:02;2.63;;;2.63;;
86099;SDS011;76724;47.496;19.064;2024-02-21T00:01:36;2.73;;;2.73;;
86099;SDS011;76724;47.496;19.064;2024-02-21T00:02:11;2.90;;;2.90;;
86099;SDS011;76724;47.496;19.064;2024-02-21T00:02:45;2.80;;;2.80;;
86099;SDS011;76724;47.496;19.064;2024-02-21T00:03:20;2.80;;;2.80;;
86099;SDS011;76724;47.496;19.064;2024-02-21T00:03:54;2.90;;;2.90;;
86099;SDS011;76724;47.496;19.064;2024-02-21T00:04:28;2.73;;;2.73;;
86099;SDS011;76724;47.496;19.064;2024-02-21T00:05:03;2.87;;;2.87;;
86099;SDS011;76724;47.496;19.064;2024-02-21T00:05:37;2.97;;;2.97;;
86099;SDS011;76724;47.496;19.064;2024-02-21T00:06:12;2.83;;;2.83;;
86099;SDS011;76724;47.496;19.064;2024-02-21T00:06:46;2.73;;;2.73;;
86099;SDS011;76724;47.496;19.064;2024-02-21T00:07:20;2.10;;;2.10;;
86099;SDS011;76724;47.496;19.064;2024-02-21T00:07:55;2.30;;;2.30;;
86099;SDS011;76724;47.496;19.064;2024-02-21T00:08:29;2.40;;;2.40;;
86099;SDS011;76724;47.496;19.064;2024-02-21T00:09:03;2.93;;;2.93;;
86099;SDS011;76724;47.496;19.064;2024-02-21T00:09:38;2.43;;;2.43;;
86099;SDS011;76724;47.496;19.064;2024-02-21T00:10:12;2.70;;;2.70;;
86099;SDS011;76724;47.496;19.064;2024-02-21T00:10:46;2.80;;;2.80;;
86099;SDS011;76724;47.496;19.064;2024-02-21T00:11:21;2.53;;;2.53;;
86099;SDS011;76724;47.496;19.064;2024-02-21T00:11:55;2.77;;;2.77;;
86099;SDS011;76724;47.496;19.064;2024-02-21T00:12:30;2.87;;;2.87;;
86099;SDS011;76724;47.496;19.064;2024-02-21T00:13:04;2.67;;;2.67;;
86099;SDS011;76724;47.496;19.064;2024-02-21T00:13:38;2.63;;;2.63;;
86099;SDS011;76724;47.496;19.064;2024-02-21T00:14:13;2.53;;;2.53;;
86099;SDS011;76724;47.496;19.064;2024-02-21T00:14:47;2.37;;;2.37;;
86099;SDS011;76724;47.496;19.064;2024-02-21T00:15:22;2.63;;;2.60;;
86099;SDS011;76724;47.496;19.064;2024-02-21T00:15:56;2.77;;;2.77;;
86099;SDS011;76724;47.496;19.064;2024-02-21T00:16:30;2.93;;;2.93;;
86099;SDS011;76724;47.496;19.064;2024-02-21T00:17:04;2.90;;;2.87;;
86099;SDS011;76724;47.496;19.064;2024-02-21T00:17:38;2.67;;;2.67;;
86099;SDS011;76724;47.496;19.064;2024-02-21T00:18:13;2.73;;;2.73;;
86099;SDS011;76724;47.496;19.064;2024-02-21T00:18:48;2.67;;;2.67;;
86099;SDS011;76724;47.496;19.064;2024-02-21T00:19:22;2.93;;;2.93;;
86099;SDS011;76724;47.496;19.064;2024-02-21T00:19:57;2.93;;;2.93;;
86099;SDS011;76724;47.496;19.064;2024-02-21T00:20:31;3.17;;;3.17;;
86099;SDS011;76724;47.496;19.064;2024-02-21T00:21:05;2.70;;;2.70;;
86099;SDS011;76724;47.496;19.064;2024-02-21T00:21:39;2.53;;;2.53;;
86099;SDS011;76724;47.496;19.064;2024-02-21T00:22:14;2.63;;;2.63;;
86099;SDS011;76724;47.496;19.064;2024-02-21T00:22:48;2.50;;;2.50;;
86099;SDS011;76724;47.496;19.064;2024-02-21T00:23:22;2.77;;;2.77;;
86099;SDS011;76724;47.496;19.064;2024-02-21T00:23:57;2.57;;;2.57;;
86099;SDS011;76724;47.496;19.064;2024-02-21T00:24:31;2.50;;;2.50;;
86099;SDS011;76724;47.496;19.064;2024-02-21T00:25:05;2.73;;;2.73;;
86099;SDS011;76724;47.496;19.064;2024-02-21T00:26:33;2.40;;;2.40;;
86099;SDS011;76724;47.496;19.064;2024-02-21T00:27:07;2.57;;;2.57;;
86099;SDS011;76724;47.496;19.064;2024-02-21T00:27:41;2.50;;;2.50;;
86099;SDS011;76724;47.496;19.064;2024-02-21T00:28:15;2.63;;;2.63;;
86099;SDS011;76724;47.496;19.064;2024-02-21T00:28:49;2.73;;;2.73;;
86099;SDS011;76724;47.496;19.064;2024-02-21T00:29:24;2.97;;;2.97;;
86099;SDS011;76724;47.496;19.064;2024-02-21T00:29:58;2.80;;;2.80;;
86099;SDS011;76724;47.496;19.064;2024-02-21T00:30:32;2.77;;;2.77;;
86099;SDS011;76724;47.496;19.064;2024-02-21T00:31:07;2.83;;;2.83;;
86099;SDS011;76724;47.496;19.064;2024-02-21T00:31:41;2.50;;;2.50;;
86099;SDS011;76724;47.496;19.064;2024-02-21T00:32:15;2.67;;;2.67;;
86099;SDS011;76724;47.496;19.064;2024-02-21T00:32:50;2.80;;;2.80;;
86099;SDS011;76724;47.496;19.064;2024-02-21T00:33:24;2.47;;;2.47;;
86099;SDS011;76724;47.496;19.064;2024-02-21T00:33:59;2.77;;;2.77;;
86099;SDS011;76724;47.496;19.064;2024-02-21T00:34:33;2.57;;;2.57;;
86099;SDS011;76724;47.496;19.064;2024-02-21T00:35:09;2.30;;;2.30;;
86099;SDS011;76724;47.496;19.064;2024-02-21T00:35:43;2.50;;;2.50;;
86099;SDS011;76724;47.496;19.064;2024-02-21T00:36:18;2.43;;;2.43;;
86099;SDS011;76724;47.496;19.064;2024-02-21T00:36:52;2.70;;;2.70;;
86099;SDS011;76724;47.496;19.064;2024-02-21T00:37:26;2.93;;;2.93;;
86099;SDS011;76724;47.496;19.064;2024-02-21T00:38:01;2.97;;;2.97;;
86099;SDS011;76724;47.496;19.064;2024-02-21T00:38:37;2.67;;;2.67;;
86099;SDS011;76724;47.496;19.064;2024-02-21T00:39:12;2.83;;;2.83;;
86099;SDS011;76724;47.496;19.064;2024-02-21T00:39:46;2.77;;;2.77;;
86099;SDS011;76724;47.496;19.064;2024-02-21T00:40:20;2.47;;;2.47;;
86099;SDS011;76724;47.496;19.064;2024-02-21T00:40:55;2.93;;;2.93;;
86099;SDS011;76724;47.496;19.064;2024-02-21T00:41:30;2.70;;;2.70;;
86099;SDS011;76724;47.496;19.064;2024-02-21T00:42:04;2.33;;;2.33;;
86099;SDS011;76724;47.496;19.064;2024-02-21T00:42:38;2.70;;;2.70;;
86099;SDS011;76724;47.496;19.064;2024-02-21T00:43:13;2.17;;;2.17;;
86099;SDS011;76724;47.496;19.064;2024-02-21T00:43:47;2.50;;;2.50;;
86099;SDS011;76724;47.496;19.064;2024-02-21T00:44:24;2.53;;;2.53;;
86099;SDS011;76724;47.496;19.064;2024-02-21T00:44:58;2.57;;;2.57;;
86099;SDS011;76724;47.496;19.064;2024-02-21T00:45:32;2.60;;;2.60;;
86099;SDS011;76724;47.496;19.064;2024-02-21T00:46:06;2.70;;;2.70;;
86099;SDS011;76724;47.496;19.064;2024-02-21T00:46:41;2.57;;;2.57;;
86099;SDS011;76724;47.496;19.064;2024-02-21T00:47:15;2.53;;;2.53;;
86099;SDS011;76724;47.496;19.064;2024-02-21T00:47:50;2.80;;;2.80;;
86099;SDS011;76724;47.496;19.064;2024-02-21T00:48:24;2.93;;;2.93;;
86099;SDS011;76724;47.496;19.064;2024-02-21T00:48:58;2.77;;;2.77;;
86099;SDS011;76724;47.496;19.064;2024-02-21T00:49:33;2.73;;;2.73;;
86099;SDS011;76724;47.496;19.064;2024-02-21T00:50:07;2.80;;;2.80;;
86099;SDS011;76724;47.496;19.064;2024-02-21T00:50:43;2.50;;;2.50;;
86099;SDS011;76724;47.496;19.064;2024-02-21T00:51:18;2.43;;;2.43;;
86099;SDS011;76724;47.496;19.064;2024-02-21T00:51:52;2.57;;;2.57;;
86099;SDS011;76724;47.496;19.064;2024-02-21T00:52:26;2.53;;;2.53;;
86099;SDS011;76724;47.496;19.064;2024-02-21T00:53:01;2.73;;;2.73;;
86099;SDS011;76724;47.496;19.064;2024-02-21T00:53:35;3.07;;;3.07;;
86099;SDS011;76724;47.496;19.064;2024-02-21T00:54:12;2.57;;;2.57;;
86099;SDS011;76724;47.496;19.064;2024-02-21T00:54:46;2.73;;;2.73;;
86099;SDS011;76724;47.496;19.064;2024-02-21T00:55:27;2.90;;;2.90;;
86099;SDS011;76724;47.496;19.064;2024-02-21T00:56:01;2.40;;;2.40;;
86099;SDS011;76724;47.496;19.064;2024-02-21T00:56:35;2.43;;;2.43;;
86099;SDS011;76724;47.496;19.064;2024-02-21T00:57:10;2.93;;;2.93;;
86099;SDS011;76724;47.496;19.064;2024-02-21T00:57:44;2.73;;;2.73;;
86099;SDS011;76724;47.496;19.064;2024-02-21T00:58:18;2.40;;;2.40;;
86099;SDS011;76724;47.496;19.064;2024-02-21T00:58:53;2.33;;;2.33;;
86099;SDS011;76724;47.496;19.064;2024-02-21T00:59:27;2.50;;;2.50;;
86099;SDS011;76724;47.496;19.064;2024-02-21T01:00:04;2.10;;;2.10;;
86099;SDS011;76724;47.496;19.064;2024-02-21T01:00:39;2.20;;;2.20;;
86099;SDS011;76724;47.496;19.064;2024-02-21T01:01:20;2.40;;;2.40;;
86099;SDS011;76724;47.496;19.064;2024-02-21T01:01:55;2.37;;;2.37;;
86099;SDS011;76724;47.496;19.064;2024-02-21T01:02:30;2.20;;;2.20;;
86099;SDS011;76724;47.496;19.064;2024-02-21T01:03:07;2.50;;;2.50;;
86099;SDS011;76724;47.496;19.064;2024-02-21T01:03:42;2.43;;;2.43;;
86099;SDS011;76724;47.496;19.064;2024-02-21T01:04:16;2.57;;;2.57;;
86099;SDS011;76724;47.496;19.064;2024-02-21T01:04:51;2.60;;;2.60;;
86099;SDS011;76724;47.496;19.064;2024-02-21T01:05:25;2.40;;;2.40;;
86099;SDS011;76724;47.496;19.064;2024-02-21T01:06:01;2.93;;;2.93;;
86099;SDS011;76724;47.496;19.064;2024-02-21T01:06:35;3.10;;;3.10;;
86099;SDS011;76724;47.496;19.064;2024-02-21T01:07:10;2.83;;;2.83;;
86099;SDS011;76724;47.496;19.064;2024-02-21T01:07:44;2.73;;;2.73;;
86099;SDS011;76724;47.496;19.064;2024-02-21T01:08:19;2.40;;;2.40;;
86099;SDS011;76724;47.496;19.064;2024-02-21T01:08:53;2.77;;;2.77;;
86099;SDS011;76724;47.496;19.064;2024-02-21T01:09:27;2.40;;;2.40;;
86099;SDS011;76724;47.496;19.064;2024-02-21T01:10:01;2.07;;;2.07;;
86099;SDS011;76724;47.496;19.064;2024-02-21T01:10:36;2.60;;;2.60;;
86099;SDS011;76724;47.496;19.064;2024-02-21T01:11:10;2.60;;;2.60;;
86099;SDS011;76724;47.496;19.064;2024-02-21T01:11:44;2.37;;;2.37;;
86099;SDS011;76724;47.496;19.064;2024-02-21T01:12:19;2.43;;;2.43;;
86099;SDS011;76724;47.496;19.064;2024-02-21T01:12:53;2.43;;;2.43;;
86099;SDS011;76724;47.496;19.064;2024-02-21T01:13:28;2.27;;;2.27;;
86099;SDS011;76724;47.496;19.064;2024-02-21T01:14:02;2.37;;;2.37;;
86099;SDS011;76724;47.496;19.064;2024-02-21T01:14:36;2.43;;;2.43;;
86099;SDS011;76724;47.496;19.064;2024-02-21T01:15:11;2.50;;;2.50;;
86099;SDS011;76724;47.496;19.064;2024-02-21T01:15:45;2.50;;;2.50;;
86099;SDS011;76724;47.496;19.064;2024-02-21T01:16:19;2.37;;;2.37;;
86099;SDS011;76724;47.496;19.064;2024-02-21T01:16:54;2.40;;;2.40;;
86099;SDS011;76724;47.496;19.064;2024-02-21T01:17:29;2.23;;;2.23;;
86099;SDS011;76724;47.496;19.064;2024-02-21T01:18:03;2.53;;;2.53;;
86099;SDS011;76724;47.496;19.064;2024-02-21T01:18:41;2.50;;;2.50;;
86099;SDS011;76724;47.496;19.064;2024-02-21T01:19:16;2.73;;;2.73;;
86099;SDS011;76724;47.496;19.064;2024-02-21T01:19:50;2.33;;;2.33;;
86099;SDS011;76724;47.496;19.064;2024-02-21T01:20:25;2.63;;;2.63;;
86099;SDS011;76724;47.496;19.064;2024-02-21T01:20:59;2.50;;;2.50;;
86099;SDS011;76724;47.496;19.064;2024-02-21T01:21:33;2.63;;;2.63;;
86099;SDS011;76724;47.496;19.064;2024-02-21T01:22:08;2.63;;;2.63;;
86099;SDS011;76724;47.496;19.064;2024-02-21T01:22:42;2.60;;;2.60;;
86099;SDS011;76724;47.496;19.064;2024-02-21T01:23:16;2.47;;;2.47;;
86099;SDS011;76724;47.496;19.064;2024-02-21T01:23:53;2.27;;;2.27;;
86099;SDS011;76724;47.496;19.064;2024-02-21T01:24:28;2.43;;;2.43;;
86099;SDS011;76724;47.496;19.064;2024-02-21T01:25:02;2.73;;;2.73;;
86099;SDS011;76724;47.496;19.064;2024-02-21T01:25:37;2.37;;;2.37;;
86099;SDS011;76724;47.496;19.064;2024-02-21T01:26:11;2.23;;;2.23;;
86099;SDS011;76724;47.496;19.064;2024-02-21T01:26:47;2.23;;;2.23;;
86099;SDS011;76724;47.496;19.064;2024-02-21T01:27:22;2.47;;;2.47;;
86099;SDS011;76724;47.496;19.064;2024-02-21T01:27:56;2.33;;;2.33;;
86099;SDS011;76724;47.496;19.064;2024-02-21T01:28:30;2.37;;;2.37;;
86099;SDS011;76724;47.496;19.064;2024-02-21T01:29:05;2.20;;;2.20;;
86099;SDS011;76724;47.496;19.064;2024-02-21T01:29:39;2.33;;;2.33;;
86099;SDS011;76724;47.496;19.064;2024-02-21T01:30:13;2.43;;;2.43;;
86099;SDS011;76724;47.496;19.064;2024-02-21T01:30:47;2.60;;;2.60;;
86099;SDS011;76724;47.496;19.064;2024-02-21T01:31:22;2.17;;;2.17;;
86099;SDS011;76724;47.496;19.064;2024-02-21T01:31:56;2.43;;;2.43;;
86099;SDS011;76724;47.496;19.064;2024-02-21T01:32:31;2.33;;;2.33;;
86099;SDS011;76724;47.496;19.064;2024-02-21T01:33:05;2.37;;;2.37;;
86099;SDS011;76724;47.496;19.064;2024-02-21T01:33:39;2.47;;;2.47;;
86099;SDS011;76724;47.496;19.064;2024-02-21T01:34:15;2.33;;;2.33;;
86099;SDS011;76724;47.496;19.064;2024-02-21T01:34:49;2.43;;;2.43;;
86099;SDS011;76724;47.496;19.064;2024-02-21T01:35:24;2.57;;;2.57;;
86099;SDS011;76724;47.496;19.064;2024-02-21T01:35:58;2.40;;;2.40;;
86099;SDS011;76724;47.496;19.064;2024-02-21T01:36:33;2.27;;;2.27;;
86099;SDS011;76724;47.496;19.064;2024-02-21T01:37:07;2.37;;;2.37;;
86099;SDS011;76724;47.496;19.064;2024-02-21T01:37:41;2.17;;;2.17;;
86099;SDS011;76724;47.496;19.064;2024-02-21T01:38:16;2.30;;;2.30;;
86099;SDS011;76724;47.496;19.064;2024-02-21T01:38:50;2.43;;;2.43;;
86099;SDS011;76724;47.496;19.064;2024-02-21T01:39:24;2.67;;;2.67;;
86099;SDS011;76724;47.496;19.064;2024-02-21T01:39:59;2.40;;;2.40;;
86099;SDS011;76724;47.496;19.064;2024-02-21T01:40:33;2.13;;;2.13;;
86099;SDS011;76724;47.496;19.064;2024-02-21T01:41:07;2.33;;;2.33;;
86099;SDS011;76724;47.496;19.064;2024-02-21T01:41:41;2.53;;;2.53;;
86099;SDS011;76724;47.496;19.064;2024-02-21T01:42:16;2.40;;;2.40;;
86099;SDS011;76724;47.496;19.064;2024-02-21T01:42:50;2.53;;;2.53;;
86099;SDS011;76724;47.496;19.064;2024-02-21T01:43:27;2.20;;;2.20;;
86099;SDS011;76724;47.496;19.064;2024-02-21T01:44:02;2.27;;;2.27;;
86099;SDS011;76724;47.496;19.064;2024-02-21T01:44:36;2.47;;;2.47;;
86099;SDS011;76724;47.496;19.064;2024-02-21T01:45:12;2.60;;;2.60;;
86099;SDS011;76724;47.496;19.064;2024-02-21T01:45:50;2.23;;;2.23;;
86099;SDS011;76724;47.496;19.064;2024-02-21T01:46:26;2.20;;;2.20;;
86099;SDS011;76724;47.496;19.064;2024-02-21T01:47:05;2.37;;;2.37;;
86099;SDS011;76724;47.496;19.064;2024-02-21T01:47:39;2.53;;;2.53;;
86099;SDS011;76724;47.496;19.064;2024-02-21T01:48:14;2.13;;;2.13;;
86099;SDS011;76724;47.496;19.064;2024-02-21T01:48:49;1.97;;;1.97;;
86099;SDS011;76724;47.496;19.064;2024-02-21T01:49:23;2.37;;;2.37;;
86099;SDS011;76724;47.496;19.064;2024-02-21T01:49:58;2.13;;;2.13;;
86099;SDS011;76724;47.496;19.064;2024-02-21T01:50:33;2.20;;;2.20;;
86099;SDS011;76724;47.496;19.064;2024-02-21T01:51:07;2.60;;;2.60;;
86099;SDS011;76724;47.496;19.064;2024-02-21T01:51:42;2.40;;;2.40;;
86099;SDS011;76724;47.496;19.064;2024-02-21T01:52:16;2.13;;;2.13;;
86099;SDS011;76724;47.496;19.064;2024-02-21T01:52:51;2.03;;;2.03;;
86099;SDS011;76724;47.496;19.064;2024-02-21T01:53:35;2.20;;;2.20;;
86099;SDS011;76724;47.496;19.064;2024-02-21T01:54:14;2.53;;;2.53;;
86099;SDS011;76724;47.496;19.064;2024-02-21T01:54:50;2.33;;;2.33;;
86099;SDS011;76724;47.496;19.064;2024-02-21T01:55:25;2.27;;;2.27;;
86099;SDS011;76724;47.496;19.064;2024-02-21T01:56:02;2.40;;;2.40;;
86099;SDS011;76724;47.496;19.064;2024-02-21T01:56:39;2.00;;;2.00;;
86099;SDS011;76724;47.496;19.064;2024-02-21T01:57:14;2.30;;;2.30;;
86099;SDS011;76724;47.496;19.064;2024-02-21T01:57:48;2.27;;;2.27;;
86099;SDS011;76724;47.496;19.064;2024-02-21T01:58:23;2.33;;;2.33;;
86099;SDS011;76724;47.496;19.064;2024-02-21T01:58:58;2.63;;;2.63;;
86099;SDS011;76724;47.496;19.064;2024-02-21T01:59:33;2.37;;;2.37;;
86099;SDS011;76724;47.496;19.064;2024-02-21T02:00:10;1.87;;;1.87;;
86099;SDS011;76724;47.496;19.064;2024-02-21T02:00:46;2.10;;;2.10;;
86099;SDS011;76724;47.496;19.064;2024-02-21T02:01:22;2.20;;;2.20;;
86099;SDS011;76724;47.496;19.064;2024-02-21T02:01:56;2.53;;;2.53;;
86099;SDS011;76724;47.496;19.064;2024-02-21T02:02:32;2.50;;;2.50;;
86099;SDS011;76724;47.496;19.064;2024-02-21T02:03:06;2.37;;;2.37;;
86099;SDS011;76724;47.496;19.064;2024-02-21T02:03:45;2.67;;;2.67;;
86099;SDS011;76724;47.496;19.064;2024-02-21T02:04:20;2.53;;;2.53;;
86099;SDS011;76724;47.496;19.064;2024-02-21T02:04:54;1.93;;;1.93;;
86099;SDS011;76724;47.496;19.064;2024-02-21T02:05:30;1.90;;;1.90;;
86099;SDS011;76724;47.496;19.064;2024-02-21T02:06:06;1.90;;;1.90;;
86099;SDS011;76724;47.496;19.064;2024-02-21T02:06:41;2.00;;;2.00;;
86099;SDS011;76724;47.496;19.064;2024-02-21T02:07:15;1.87;;;1.87;;
86099;SDS011;76724;47.496;19.064;2024-02-21T02:07:50;1.83;;;1.83;;
86099;SDS011;76724;47.496;19.064;2024-02-21T02:08:24;2.30;;;2.30;;
86099;SDS011;76724;47.496;19.064;2024-02-21T02:08:58;2.17;;;2.17;;
86099;SDS011;76724;47.496;19.064;2024-02-21T02:09:33;2.37;;;2.37;;
86099;SDS011;76724;47.496;19.064;2024-02-21T02:10:08;2.00;;;2.00;;
86099;SDS011;76724;47.496;19.064;2024-02-21T02:10:44;2.50;;;2.50;;
86099;SDS011;76724;47.496;19.064;2024-02-21T02:11:19;2.13;;;2.13;;
86099;SDS011;76724;47.496;19.064;2024-02-21T02:11:53;2.40;;;2.40;;
86099;SDS011;76724;47.496;19.064;2024-02-21T02:12:28;2.50;;;2.50;;
86099;SDS011;76724;47.496;19.064;2024-02-21T02:13:02;2.17;;;2.17;;
86099;SDS011;76724;47.496;19.064;2024-02-21T02:13:36;2.10;;;2.10;;
86099;SDS011;76724;47.496;19.064;2024-02-21T02:14:11;2.17;;;2.17;;
86099;SDS011;76724;47.496;19.064;2024-02-21T02:14:45;2.13;;;2.13;;
86099;SDS011;76724;47.496;19.064;2024-02-21T02:15:19;2.33;;;2.33;;
86099;SDS011;76724;47.496;19.064;2024-02-21T02:15:53;1.87;;;1.87;;
86099;SDS011;76724;47.496;19.064;2024-02-21T02:16:28;2.33;;;2.33;;
86099;SDS011;76724;47.496;19.064;2024-02-21T02:17:02;2.07;;;2.07;;
86099;SDS011;76724;47.496;19.064;2024-02-21T02:17:36;2.17;;;2.17;;
86099;SDS011;76724;47.496;19.064;2024-02-21T02:18:11;2.23;;;2.23;;
86099;SDS011;76724;47.496;19.064;2024-02-21T02:18:46;2.03;;;2.03;;
86099;SDS011;76724;47.496;19.064;2024-02-21T02:19:21;2.17;;;2.17;;
86099;SDS011;76724;47.496;19.064;2024-02-21T02:19:55;1.97;;;1.97;;
86099;SDS011;76724;47.496;19.064;2024-02-21T02:20:30;2.17;;;2.17;;
86099;SDS011;76724;47.496;19.064;2024-02-21T02:21:05;2.13;;;2.13;;
86099;SDS011;76724;47.496;19.064;2024-02-21T02:21:50;2.13;;;2.13;;
86099;SDS011;76724;47.496;19.064;2024-02-21T02:22:29;2.23;;;2.23;;
86099;SDS011;76724;47.496;19.064;2024-02-21T02:23:46;2.20;;;2.20;;
86099;SDS011;76724;47.496;19.064;2024-02-21T02:24:20;2.30;;;2.30;;
86099;SDS011;76724;47.496;19.064;2024-02-21T02:24:56;2.30;;;2.30;;
86099;SDS011;76724;47.496;19.064;2024-02-21T02:25:31;2.27;;;2.27;;
86099;SDS011;76724;47.496;19.064;2024-02-21T02:26:05;2.27;;;2.27;;
86099;SDS011;76724;47.496;19.064;2024-02-21T02:26:41;2.47;;;2.47;;
86099;SDS011;76724;47.496;19.064;2024-02-21T02:27:15;2.27;;;2.27;;
86099;SDS011;76724;47.496;19.064;2024-02-21T02:27:49;2.10;;;2.10;;
86099;SDS011;76724;47.496;19.064;2024-02-21T02:28:23;2.13;;;2.13;;
86099;SDS011;76724;47.496;19.064;2024-02-21T02:28:58;2.23;;;2.23;;
86099;SDS011;76724;47.496;19.064;2024-02-21T02:29:35;2.20;;;2.20;;
86099;SDS011;76724;47.496;19.064;2024-02-21T02:30:09;2.43;;;2.40;;
86099;SDS011;76724;47.496;19.064;2024-02-21T02:30:44;2.23;;;2.23;;
86099;SDS011;76724;47.496;19.064;2024-02-21T02:31:19;2.00;;;2.00;;
86099;SDS011;76724;47.496;19.064;2024-02-21T02:31:53;2.40;;;2.37;;
86099;SDS011;76724;47.496;19.064;2024-02-21T02:32:28;2.27;;;2.23;;
86099;SDS011;76724;47.496;19.064;2024-02-21T02:33:05;2.10;;;2.10;;
86099;SDS011;76724;47.496;19.064;2024-02-21T02:33:42;1.77;;;1.77;;
86099;SDS011;76724;47.496;19.064;2024-02-21T02:34:17;2.50;;;2.50;;
86099;SDS011;76724;47.496;19.064;2024-02-21T02:34:52;2.40;;;2.40;;
86099;SDS011;76724;47.496;19.064;2024-02-21T02:35:26;2.13;;;2.13;;
86099;SDS011;76724;47.496;19.064;2024-02-21T02:36:00;2.07;;;2.07;;
86099;SDS011;76724;47.496;19.064;2024-02-21T02:36:35;2.37;;;2.37;;
86099;SDS011;76724;47.496;19.064;2024-02-21T02:37:09;2.37;;;2.37;;
86099;SDS011;76724;47.496;19.064;2024-02-21T02:37:49;2.03;;;2.03;;
86099;SDS011;76724;47.496;19.064;2024-02-21T02:39:17;2.37;;;2.37;;
86099;SDS011;76724;47.496;19.064;2024-02-21T02:39:51;2.17;;;2.17;;
86099;SDS011;76724;47.496;19.064;2024-02-21T02:40:26;2.03;;;2.03;;
86099;SDS011;76724;47.496;19.064;2024-02-21T02:41:00;2.23;;;2.23;;
86099;SDS011;76724;47.496;19.064;2024-02-21T02:41:36;2.00;;;2.00;;
86099;SDS011;76724;47.496;19.064;2024-02-21T02:42:10;1.90;;;1.90;;
86099;SDS011;76724;47.496;19.064;2024-02-21T02:42:44;2.00;;;2.00;;
86099;SDS011;76724;47.496;19.064;2024-02-21T02:43:18;2.13;;;2.13;;
86099;SDS011;76724;47.496;19.064;2024-02-21T02:43:53;2.07;;;2.07;;
86099;SDS011;76724;47.496;19.064;2024-02-21T02:44:27;1.97;;;1.97;;
86099;SDS011;76724;47.496;19.064;2024-02-21T02:45:02;2.10;;;2.10;;
86099;SDS011;76724;47.496;19.064;2024-02-21T02:45:37;2.37;;;2.37;;
86099;SDS011;76724;47.496;19.064;2024-02-21T02:46:11;2.20;;;2.20;;
86099;SDS011;76724;47.496;19.064;2024-02-21T02:46:46;2.13;;;2.13;;
86099;SDS011;76724;47.496;19.064;2024-02-21T02:47:20;2.17;;;2.17;;
86099;SDS011;76724;47.496;19.064;2024-02-21T02:47:55;2.30;;;2.30;;
86099;SDS011;76724;47.496;19.064;2024-02-21T02:48:31;2.07;;;2.07;;
86099;SDS011;76724;47.496;19.064;2024-02-21T02:49:05;2.27;;;2.27;;
86099;SDS011;76724;47.496;19.064;2024-02-21T02:49:40;2.33;;;2.33;;
86099;SDS011;76724;47.496;19.064;2024-02-21T02:50:15;2.13;;;2.13;;
86099;SDS011;76724;47.496;19.064;2024-02-21T02:50:49;2.03;;;2.03;;
86099;SDS011;76724;47.496;19.064;2024-02-21T02:51:23;2.07;;;2.07;;
86099;SDS011;76724;47.496;19.064;2024-02-21T02:51:58;2.00;;;2.00;;
86099;SDS011;76724;47.496;19.064;2024-02-21T02:52:32;2.07;;;2.07;;
86099;SDS011;76724;47.496;19.064;2024-02-21T02:53:06;2.20;;;2.20;;
86099;SDS011;76724;47.496;19.064;2024-02-21T02:53:41;2.13;;;2.13;;
86099;SDS011;76724;47.496;19.064;2024-02-21T02:54:15;2.00;;;2.00;;
86099;SDS011;76724;47.496;19.064;2024-02-21T02:54:50;2.13;;;2.13;;
86099;SDS011;76724;47.496;19.064;2024-02-21T02:55:25;1.93;;;1.93;;
86099;SDS011;76724;47.496;19.064;2024-02-21T02:56:00;2.10;;;2.10;;
86099;SDS011;76724;47.496;19.064;2024-02-21T02:56:35;2.07;;;2.07;;
86099;SDS011;76724;47.496;19.064;2024-02-21T02:57:09;2.03;;;2.03;;
86099;SDS011;76724;47.496;19.064;2024-02-21T02:57:44;2.10;;;2.07;;
86099;SDS011;76724;47.496;19.064;2024-02-21T02:58:19;2.03;;;2.03;;
86099;SDS011;76724;47.496;19.064;2024-02-21T02:58:53;2.03;;;2.03;;
86099;SDS011;76724;47.496;19.064;2024-02-21T02:59:27;1.93;;;1.93;;
86099;SDS011;76724;47.496;19.064;2024-02-21T03:00:01;2.47;;;2.47;;
86099;SDS011;76724;47.496;19.064;2024-02-21T03:00:36;2.40;;;2.40;;
86099;SDS011;76724;47.496;19.064;2024-02-21T03:01:12;2.17;;;2.17;;
86099;SDS011;76724;47.496;19.064;2024-02-21T03:01:47;2.03;;;2.03;;
86099;SDS011;76724;47.496;19.064;2024-02-21T03:02:21;1.97;;;1.97;;
86099;SDS011;76724;47.496;19.064;2024-02-21T03:02:56;2.00;;;2.00;;
86099;SDS011;76724;47.496;19.064;2024-02-21T03:03:30;2.17;;;2.17;;
86099;SDS011;76724;47.496;19.064;2024-02-21T03:04:04;2.70;;;2.70;;
86099;SDS011;76724;47.496;19.064;2024-02-21T03:04:41;2.50;;;2.50;;
86099;SDS011;76724;47.496;19.064;2024-02-21T03:05:17;2.10;;;2.10;;
86099;SDS011;76724;47.496;19.064;2024-02-21T03:05:53;2.27;;;2.27;;
86099;SDS011;76724;47.496;19.064;2024-02-21T03:06:27;2.30;;;2.30;;
86099;SDS011;76724;47.496;19.064;2024-02-21T03:07:01;2.27;;;2.27;;
86099;SDS011;76724;47.496;19.064;2024-02-21T03:07:36;2.17;;;2.17;;
86099;SDS011;76724;47.496;19.064;2024-02-21T03:08:10;1.73;;;1.73;;
86099;SDS011;76724;47.496;19.064;2024-02-21T03:08:44;1.77;;;1.77;;
86099;SDS011;76724;47.496;19.064;2024-02-21T03:09:19;2.03;;;2.03;;
86099;SDS011;76724;47.496;19.064;2024-02-21T03:09:53;2.17;;;2.17;;
86099;SDS011;76724;47.496;19.064;2024-02-21T03:10:28;2.10;;;2.10;;
86099;SDS011;76724;47.496;19.064;2024-02-21T03:11:02;1.90;;;1.90;;
86099;SDS011;76724;47.496;19.064;2024-02-21T03:11:37;1.80;;;1.80;;
86099;SDS011;76724;47.496;19.064;2024-02-21T03:12:14;1.87;;;1.87;;
86099;SDS011;76724;47.496;19.064;2024-02-21T03:12:53;2.37;;;2.37;;
86099;SDS011;76724;47.496;19.064;2024-02-21T03:13:27;2.20;;;2.20;;
86099;SDS011;76724;47.496;19.064;2024-02-21T03:14:02;1.90;;;1.90;;
86099;SDS011;76724;47.496;19.064;2024-02-21T03:14:36;2.23;;;2.23;;
86099;SDS011;76724;47.496;19.064;2024-02-21T03:15:10;2.27;;;2.27;;
86099;SDS011;76724;47.496;19.064;2024-02-21T03:15:45;2.07;;;2.07;;
86099;SDS011;76724;47.496;19.064;2024-02-21T03:16:20;2.00;;;2.00;;
86099;SDS011;76724;47.496;19.064;2024-02-21T03:16:54;1.90;;;1.90;;
86099;SDS011;76724;47.496;19.064;2024-02-21T03:17:29;1.73;;;1.73;;
86099;SDS011;76724;47.496;19.064;2024-02-21T03:18:03;2.20;;;2.20;;
86099;SDS011;76724;47.496;19.064;2024-02-21T03:18:38;2.30;;;2.30;;
86099;SDS011;76724;47.496;19.064;2024-02-21T03:19:13;2.10;;;2.10;;
86099;SDS011;76724;47.496;19.064;2024-02-21T03:19:48;2.17;;;2.17;;
86099;SDS011;76724;47.496;19.064;2024-02-21T03:20:23;1.93;;;1.93;;
86099;SDS011;76724;47.496;19.064;2024-02-21T03:20:57;2.27;;;2.27;;
86099;SDS011;76724;47.496;19.064;2024-02-21T03:21:32;2.13;;;2.13;;
86099;SDS011;76724;47.496;19.064;2024-02-21T03:22:06;2.10;;;2.10;;
86099;SDS011;76724;47.496;19.064;2024-02-21T03:22:41;2.20;;;2.20;;
86099;SDS011;76724;47.496;19.064;2024-02-21T03:23:16;2.10;;;2.10;;
86099;SDS011;76724;47.496;19.064;2024-02-21T03:23:50;1.80;;;1.80;;
86099;SDS011;76724;47.496;19.064;2024-02-21T03:24:24;2.13;;;2.13;;
86099;SDS011;76724;47.496;19.064;2024-02-21T03:24:58;2.20;;;2.20;;
86099;SDS011;76724;47.496;19.064;2024-02-21T03:25:33;2.13;;;2.13;;
86099;SDS011;76724;47.496;19.064;2024-02-21T03:26:07;2.07;;;2.07;;
86099;SDS011;76724;47.496;19.064;2024-02-21T03:26:41;2.33;;;2.33;;
86099;SDS011;76724;47.496;19.064;2024-02-21T03:27:16;1.87;;;1.87;;
86099;SDS011;76724;47.496;19.064;2024-02-21T03:27:51;1.90;;;1.90;;
86099;SDS011;76724;47.496;19.064;2024-02-21T03:28:25;1.87;;;1.87;;
86099;SDS011;76724;47.496;19.064;2024-02-21T03:28:59;2.07;;;2.07;;